createdAt,value
2023-04-05T00:04:34.517Z,76.92
2023-04-05T00:09:34.341Z,77.06
2023-04-05T00:14:34.297Z,77.58
2023-04-05T00:19:34.242Z,77.37
2023-04-05T00:24:34.264Z,77.58
2023-04-05T00:29:34.145Z,78.10
2023-04-05T00:34:34.103Z,77.69
2023-04-05T00:39:34.048Z,78.31
2023-04-05T00:44:33.953Z,77.58
2023-04-05T00:49:33.906Z,77.69
2023-04-05T00:54:33.872Z,76.96
2023-04-05T00:59:33.872Z,76.75
2023-04-05T01:04:33.749Z,76.47
2023-04-05T01:09:33.755Z,77.31
2023-04-05T01:14:34.411Z,76.89
2023-04-05T01:19:33.487Z,77.66
2023-04-05T01:24:33.546Z,77.45
2023-04-05T01:29:33.346Z,77.80
2023-04-05T01:34:33.347Z,78.00
2023-04-05T01:39:33.354Z,78.00
2023-04-05T01:44:33.258Z,78.21
2023-04-05T01:49:33.230Z,78.11
2023-04-05T01:54:33.110Z,78.04
2023-04-05T01:59:33.097Z,78.66
2023-04-05T02:04:33.026Z,78.45
2023-04-05T02:09:32.985Z,78.80
2023-04-05T02:14:32.898Z,79.01
2023-04-05T02:19:34.864Z,78.91
2023-04-05T02:24:32.792Z,79.11
2023-04-05T02:29:32.845Z,79.11
2023-04-05T02:34:32.696Z,79.33
2023-04-05T02:39:32.631Z,79.43
2023-04-05T02:44:32.593Z,79.85
2023-04-05T02:49:32.593Z,79.53
2023-04-05T02:54:32.491Z,79.74
2023-04-05T02:59:32.525Z,79.88
2023-04-05T03:04:32.394Z,79.88
2023-04-05T03:09:32.355Z,80.20
2023-04-05T03:14:32.249Z,80.30
2023-04-05T03:19:32.346Z,80.30
2023-04-05T03:24:32.185Z,80.09
2023-04-05T03:29:32.217Z,80.55
2023-04-05T03:34:32.097Z,81.18
2023-04-05T03:39:32.070Z,80.55
2023-04-05T03:44:31.943Z,80.76
2023-04-05T03:49:31.912Z,81.00
2023-04-05T03:54:31.861Z,81.07
2023-04-05T03:59:31.903Z,80.79
2023-04-05T04:04:31.762Z,81.11
2023-04-05T04:09:31.664Z,81.21
2023-04-05T04:14:31.631Z,81.73
2023-04-05T04:19:31.629Z,81.32
2023-04-05T04:24:32.406Z,81.32
2023-04-05T04:29:31.521Z,81.32
2023-04-05T04:34:31.446Z,81.32
2023-04-05T04:39:31.383Z,81.35
2023-04-05T04:44:31.521Z,82.60
2023-04-05T04:49:31.300Z,82.60
2023-04-05T04:54:31.373Z,81.95
2023-04-05T04:59:34.802Z,81.25
2023-04-05T05:04:31.260Z,81.77
2023-04-05T05:09:31.147Z,82.82
2023-04-05T05:14:31.039Z,81.98
2023-04-05T05:19:30.977Z,81.77
2023-04-05T05:24:30.902Z,81.67
2023-04-05T05:29:32.006Z,81.67
2023-04-05T05:34:30.799Z,82.36
2023-04-05T05:39:30.774Z,82.15
2023-04-05T05:44:30.708Z,82.12
2023-04-05T05:49:30.641Z,81.87
2023-04-05T05:54:30.590Z,81.52
2023-04-05T05:59:30.655Z,81.10
2023-04-05T06:04:41.422Z,80.85
2023-04-05T06:09:30.488Z,80.30
2023-04-05T06:14:30.430Z,79.84
2023-04-05T06:19:30.393Z,78.56
2023-04-05T06:24:30.291Z,78.63
2023-04-05T06:29:30.263Z,77.86
2023-04-05T06:34:30.247Z,78.14
2023-04-05T06:39:30.125Z,76.23
2023-04-05T06:44:30.080Z,75.26
2023-04-05T06:49:30.056Z,74.77
2023-04-05T06:54:29.974Z,72.74
2023-04-05T06:59:29.965Z,72.49
2023-04-05T07:04:29.863Z,70.36
2023-04-05T07:09:29.812Z,69.77
2023-04-05T07:14:29.820Z,68.29
2023-04-05T07:19:29.726Z,63.68
2023-04-05T07:24:29.629Z,63.21
2023-04-05T07:29:29.612Z,64.62
2023-04-05T07:34:29.559Z,60.85
2023-04-05T07:39:29.720Z,58.01
2023-04-05T07:44:29.426Z,57.03
2023-04-05T07:49:29.464Z,58.03
2023-04-05T07:54:29.300Z,53.58
2023-04-05T07:59:29.338Z,51.48
2023-04-05T08:04:29.291Z,50.71
2023-04-05T08:09:29.147Z,52.64
2023-04-05T08:14:29.126Z,50.77
2023-04-05T08:19:29.059Z,53.00
2023-04-05T08:24:28.984Z,48.92
2023-04-05T08:29:28.906Z,48.34
2023-04-05T08:34:28.874Z,45.04
2023-04-05T08:39:28.819Z,44.61
2023-04-05T08:44:28.778Z,44.59
2023-04-05T08:49:28.774Z,45.39
2023-04-05T08:54:28.677Z,43.96
2023-04-05T08:59:32.135Z,42.59
2023-04-05T09:04:28.552Z,43.51
2023-04-05T09:09:28.586Z,44.35
2023-04-05T09:14:28.535Z,42.79
2023-04-05T09:19:28.497Z,41.14
2023-04-05T09:24:28.432Z,42.02
2023-04-05T09:29:28.300Z,43.37
2023-04-05T09:34:28.251Z,40.41
2023-04-05T09:39:29.288Z,42.96
2023-04-05T09:44:28.145Z,42.51
2023-04-05T09:49:28.031Z,40.88
2023-04-05T09:54:27.998Z,41.65
2023-04-05T09:59:28.016Z,39.45
2023-04-05T10:04:27.920Z,38.65
2023-04-05T10:09:27.870Z,39.37
2023-04-05T10:14:27.785Z,40.90
2023-04-05T10:19:27.726Z,40.17
2023-04-05T10:24:27.705Z,39.23
2023-04-05T10:29:27.677Z,38.42
2023-04-05T10:34:27.584Z,37.41
2023-04-05T10:39:27.571Z,38.84
2023-04-05T10:44:28.499Z,38.11
2023-04-05T10:49:27.399Z,36.93
2023-04-05T10:54:27.402Z,37.75
2023-04-05T10:59:27.405Z,37.02
2023-04-05T11:04:27.376Z,37.34
2023-04-05T11:09:27.203Z,36.53
2023-04-05T11:14:27.208Z,38.04
2023-04-05T11:19:27.147Z,37.77
2023-04-05T11:24:27.064Z,36.10
2023-04-05T11:29:27.032Z,37.21
2023-04-05T11:34:26.936Z,36.08
2023-04-05T11:39:26.890Z,35.27
2023-04-05T11:44:26.870Z,36.43
2023-04-05T11:49:26.817Z,36.51
2023-04-05T11:54:26.748Z,34.46
2023-04-05T11:59:26.764Z,34.99
2023-04-05T12:04:26.687Z,34.68
2023-04-05T12:09:26.599Z,35.27
2023-04-05T12:14:26.542Z,33.36
2023-04-05T12:19:26.508Z,35.48
2023-04-05T12:24:26.437Z,34.56
2023-04-05T12:29:26.392Z,35.11
2023-04-05T12:34:26.334Z,34.72
2023-04-05T12:39:26.405Z,33.62
2023-04-05T12:44:26.254Z,33.80
2023-04-05T12:49:26.209Z,34.92
2023-04-05T12:54:26.195Z,32.89
2023-04-05T12:59:26.094Z,31.84
2023-04-05T13:04:25.973Z,33.24
2023-04-05T13:09:25.958Z,34.90
2023-04-05T13:14:25.876Z,35.38
2023-04-05T13:19:25.842Z,33.82
2023-04-05T13:24:25.781Z,34.04
2023-04-05T13:29:25.764Z,35.63
2023-04-05T13:34:25.760Z,35.42
2023-04-05T13:39:25.629Z,34.55
2023-04-05T13:44:25.637Z,34.56
2023-04-05T13:49:25.575Z,36.04
2023-04-05T13:54:25.562Z,35.19
2023-04-05T13:59:25.531Z,35.41
2023-04-05T14:04:25.371Z,36.10
2023-04-05T14:09:25.317Z,34.16
2023-04-05T14:14:25.284Z,34.34
2023-04-05T14:19:25.217Z,32.34
2023-04-05T14:24:25.160Z,34.26
2023-04-05T14:29:25.065Z,34.58
2023-04-05T14:34:25.002Z,33.54
2023-04-05T14:39:25.129Z,34.09
2023-04-05T14:44:24.904Z,34.59
2023-04-05T14:49:24.851Z,34.29
2023-04-05T14:54:24.797Z,34.51
2023-04-05T14:59:24.883Z,32.68
2023-04-05T15:04:24.817Z,35.71
2023-04-05T15:09:24.620Z,34.20
2023-04-05T15:14:31.763Z,34.31
2023-04-05T15:19:25.529Z,34.22
2023-04-05T15:24:24.483Z,40.33
2023-04-05T15:29:24.432Z,36.05
2023-04-05T15:34:24.367Z,38.72
2023-04-05T15:39:24.321Z,38.53
2023-04-05T15:44:24.267Z,39.31
2023-04-05T15:49:24.159Z,58.03
2023-04-05T15:54:24.161Z,44.00
2023-04-05T15:59:24.174Z,45.57
2023-04-05T16:04:24.057Z,40.30
2023-04-05T16:09:23.926Z,41.42
2023-04-05T16:14:24.110Z,41.12
2023-04-05T16:19:23.875Z,43.16
2023-04-05T16:24:23.886Z,41.33
2023-04-05T16:29:23.841Z,42.88
2023-04-05T16:34:23.739Z,38.71
2023-04-05T16:39:23.662Z,39.20
2023-04-05T16:44:23.641Z,37.79
2023-04-05T16:49:23.545Z,38.30
2023-04-05T16:54:25.029Z,44.02
2023-04-05T16:59:23.488Z,39.73
2023-04-05T17:04:23.379Z,38.20
2023-04-05T17:09:23.426Z,37.48
2023-04-05T17:14:23.298Z,41.26
2023-04-05T17:19:23.217Z,38.01
2023-04-05T17:24:23.175Z,38.32
2023-04-05T17:29:23.111Z,40.58
2023-04-05T17:34:23.087Z,40.70
2023-04-05T17:39:22.970Z,39.78
2023-04-05T17:44:23.011Z,42.16
2023-04-05T17:49:22.858Z,42.07
2023-04-05T17:54:22.896Z,44.04
2023-04-05T17:59:22.869Z,47.93
2023-04-05T18:04:23.065Z,48.88
2023-04-05T18:09:22.731Z,48.36
2023-04-05T18:14:22.615Z,49.18
2023-04-05T18:19:22.592Z,46.64
2023-04-05T18:24:22.514Z,49.13
2023-04-05T18:29:22.579Z,50.69
2023-04-05T18:34:22.410Z,49.58
2023-04-05T18:39:22.458Z,51.28
2023-04-05T18:44:22.355Z,54.46
2023-04-05T18:49:22.262Z,53.15
2023-04-05T18:54:22.201Z,54.10
2023-04-05T18:59:22.200Z,55.66
2023-04-05T19:04:22.094Z,55.15
2023-04-05T19:09:22.249Z,55.59
2023-04-05T19:14:22.029Z,57.06
2023-04-05T19:19:21.921Z,59.25
2023-04-05T19:24:21.881Z,58.55
2023-04-05T19:29:21.830Z,59.28
2023-04-05T19:34:21.872Z,60.82
2023-04-05T19:39:30.690Z,59.69
2023-04-05T19:44:21.644Z,59.64
2023-04-05T19:49:21.618Z,61.01
2023-04-05T19:54:21.560Z,60.49
2023-04-05T19:59:21.552Z,61.24
2023-04-05T20:04:21.445Z,62.48
2023-04-05T20:09:21.401Z,62.72
2023-04-05T20:14:21.393Z,63.03
2023-04-05T20:19:21.331Z,62.65
2023-04-05T20:24:21.288Z,63.78
2023-04-05T20:29:22.210Z,64.95
2023-04-05T20:34:21.225Z,65.67
2023-04-05T20:39:21.129Z,66.32
2023-04-05T20:44:21.080Z,65.50
2023-04-05T20:49:20.994Z,67.29
2023-04-05T20:54:20.994Z,67.60
2023-04-05T20:59:20.986Z,68.32
2023-04-05T21:04:20.907Z,68.46
2023-04-05T21:09:20.806Z,67.86
2023-04-05T21:14:20.804Z,68.59
2023-04-05T21:19:20.756Z,68.90
2023-04-05T21:24:20.680Z,69.35
2023-04-05T21:29:20.699Z,68.93
2023-04-05T21:34:20.556Z,69.87
2023-04-05T21:39:20.485Z,70.10
2023-04-05T21:44:20.475Z,69.17
2023-04-05T21:49:20.429Z,69.52
2023-04-05T21:54:20.351Z,69.42
2023-04-05T21:59:20.466Z,70.25
2023-04-05T22:04:20.211Z,70.38
2023-04-05T22:09:20.158Z,70.48
2023-04-05T22:14:20.076Z,70.83
2023-04-05T22:19:20.089Z,71.55
2023-04-05T22:24:20.060Z,71.90
2023-04-05T22:29:19.953Z,72.00
2023-04-05T22:34:19.872Z,72.31
2023-04-05T22:39:19.906Z,72.31
2023-04-05T22:44:19.831Z,72.14
2023-04-05T22:49:19.697Z,71.93
2023-04-05T22:54:19.767Z,72.45
2023-04-05T22:59:19.739Z,72.69
2023-04-05T23:04:19.592Z,73.21
2023-04-05T23:09:19.655Z,73.32
2023-04-05T23:14:19.444Z,73.32
2023-04-05T23:19:19.407Z,72.62
2023-04-05T23:24:19.341Z,72.93
2023-04-05T23:29:19.329Z,73.14
2023-04-05T23:34:19.256Z,72.83
2023-04-05T23:39:19.199Z,73.49
2023-04-05T23:44:19.147Z,73.69
2023-04-05T23:49:19.081Z,74.01
2023-04-05T23:54:19.110Z,74.01
2023-04-05T23:59:20.076Z,74.66
